PWSweather.com
Personal Weather Stations
Station Observations
WATERF01
WaterfordIE

WaterfordIE

Lat: 52.2412507, Lon: -7.1414691

Elevation: 65

Station Type: Davis Vantage Vue

www.waterfordweather.com

High Low Average
Temperature 41.4°F5.2°C 32.7°F0.4°C 37.1°F2.8°C
Dew Point 37.5°F3.1°C 31.4°F-0.3°C 34.5°F1.4°C
Winds 13.8 mph 22.2 kmh Calm Calm 7.0 mph NW11.3 kmh NW
Wind Gusts 21.9 mph35.2 kmh -- 12.0 mph19.3 kmh
Humidity 95% 84% 90%
Pressure 29.68 in1005.1 mb 29.31 in992.6 mb -
Precipitation 0.00 in0.0 mm - -
Hour Temp Dew Point Humidity Winds Wind Gusts Pressure Precip Precip Rate Daily Precip Total
12:00 AM 36.7°F2.6°C 34.3°F1.3°C 91% 8.1 mph NW13.0 kmh NW 12.7 mph20.4 kmh 29.31 in992.6 mb - 0.00 in0.0 mm 0.00 in0.0 mm
12:10 AM 36.5°F2.5°C 34.4°F1.3°C 92% 9.2 mph NW14.8 kmh NW 13.8 mph22.2 kmh 29.31 in992.6 mb - 0.00 in0.0 mm 0.00 in0.0 mm
12:20 AM 36.5°F2.5°C 34.1°F1.2°C 91% 6.9 mph NW11.1 kmh NW 9.2 mph14.8 kmh 29.31 in992.6 mb - 0.00 in0.0 mm 0.00 in0.0 mm
12:30 AM 36.5°F2.5°C 34.1°F1.2°C 91% 10.4 mph NW16.7 kmh NW 18.4 mph29.6 kmh 29.31 in992.6 mb - 0.00 in0.0 mm 0.00 in0.0 mm
12:40 AM 36.4°F2.4°C 34.0°F1.1°C 91% 10.4 mph NW16.7 kmh NW 16.1 mph25.9 kmh 29.32 in992.9 mb - 0.00 in0.0 mm 0.00 in0.0 mm
12:50 AM 36.3°F2.4°C 33.9°F1.1°C 91% 8.1 mph NW13.0 kmh NW 13.8 mph22.2 kmh 29.32 in992.9 mb - 0.00 in0.0 mm 0.00 in0.0 mm
01:00 AM 36.3°F2.4°C 33.9°F1.1°C 91% 9.2 mph NW14.8 kmh NW 13.8 mph22.2 kmh 29.32 in992.9 mb - 0.00 in0.0 mm 0.00 in0.0 mm
01:10 AM 36.1°F2.3°C 33.7°F0.9°C 91% 9.2 mph NW14.8 kmh NW 13.8 mph22.2 kmh 29.32 in992.9 mb - 0.00 in0.0 mm 0.00 in0.0 mm
01:20 AM 35.9°F2.2°C 33.5°F0.8°C 91% 9.2 mph NW14.8 kmh NW 13.8 mph22.2 kmh 29.33 in993.2 mb - 0.00 in0.0 mm 0.00 in0.0 mm
01:30 AM 35.7°F2.1°C 33.3°F0.7°C 91% 6.9 mph NW11.1 kmh NW 13.8 mph22.2 kmh 29.34 in993.6 mb - 0.00 in0.0 mm 0.00 in0.0 mm
01:40 AM 35.5°F1.9°C 33.4°F0.8°C 92% 6.9 mph NW11.1 kmh NW 9.2 mph14.8 kmh 29.34 in993.6 mb - 0.00 in0.0 mm 0.00 in0.0 mm
01:50 AM 35.3°F1.8°C 33.2°F0.7°C 92% 6.9 mph NW11.1 kmh NW 8.1 mph13.0 kmh 29.34 in993.6 mb - 0.00 in0.0 mm 0.00 in0.0 mm
02:00 AM 35.2°F1.8°C 33.1°F0.6°C 92% 8.1 mph NW13.0 kmh NW 12.7 mph20.4 kmh 29.33 in993.2 mb - 0.00 in0.0 mm 0.00 in0.0 mm
02:10 AM 35.3°F1.8°C 33.2°F0.7°C 92% 9.2 mph NW14.8 kmh NW 11.5 mph18.5 kmh 29.34 in993.6 mb - 0.00 in0.0 mm 0.00 in0.0 mm
02:20 AM 35.4°F1.9°C 33.3°F0.7°C 92% 9.2 mph NW14.8 kmh NW 15.0 mph24.1 kmh 29.34 in993.6 mb - 0.00 in0.0 mm 0.00 in0.0 mm
02:30 AM 35.6°F2.0°C 33.5°F0.8°C 92% 10.4 mph NW16.7 kmh NW 13.8 mph22.2 kmh 29.35 in993.9 mb - 0.00 in0.0 mm 0.00 in0.0 mm
02:40 AM 35.7°F2.1°C 33.6°F0.9°C 92% 8.1 mph NW13.0 kmh NW 13.8 mph22.2 kmh 29.35 in993.9 mb - 0.00 in0.0 mm 0.00 in0.0 mm
02:50 AM 35.8°F2.1°C 33.7°F0.9°C 92% 8.1 mph NW13.0 kmh NW 11.5 mph18.5 kmh 29.36 in994.2 mb - 0.00 in0.0 mm 0.00 in0.0 mm
03:00 AM 35.9°F2.2°C 33.8°F1.0°C 92% 8.1 mph NW13.0 kmh NW 13.8 mph22.2 kmh 29.37 in994.6 mb - 0.00 in0.0 mm 0.00 in0.0 mm
03:10 AM 35.7°F2.1°C 33.6°F0.9°C 92% 6.9 mph NW11.1 kmh NW 13.8 mph22.2 kmh 29.37 in994.6 mb - 0.00 in0.0 mm 0.00 in0.0 mm
03:20 AM 35.7°F2.1°C 33.6°F0.9°C 92% 8.1 mph NW13.0 kmh NW 9.2 mph14.8 kmh 29.38 in994.9 mb - 0.00 in0.0 mm 0.00 in0.0 mm
03:30 AM 35.9°F2.2°C 33.8°F1.0°C 92% 8.1 mph NW13.0 kmh NW 16.1 mph25.9 kmh 29.38 in994.9 mb - 0.00 in0.0 mm 0.00 in0.0 mm
03:40 AM 36.1°F2.3°C 34.0°F1.1°C 92% 10.4 mph NW16.7 kmh NW 17.3 mph27.8 kmh 29.38 in994.9 mb - 0.00 in0.0 mm 0.00 in0.0 mm
03:50 AM 36.3°F2.4°C 33.9°F1.1°C 91% 8.1 mph NW13.0 kmh NW 12.7 mph20.4 kmh 29.39 in995.3 mb - 0.00 in0.0 mm 0.00 in0.0 mm
04:00 AM 36.8°F2.7°C 34.4°F1.3°C 91% 11.5 mph NW18.5 kmh NW 19.6 mph31.5 kmh 29.40 in995.6 mb - 0.00 in0.0 mm 0.00 in0.0 mm
04:10 AM 37.3°F2.9°C 34.6°F1.4°C 90% 12.7 mph NW20.4 kmh NW 21.9 mph35.2 kmh 29.40 in995.6 mb - 0.00 in0.0 mm 0.00 in0.0 mm
04:20 AM 37.4°F3.0°C 34.8°F1.6°C 90% 11.5 mph NW18.5 kmh NW 18.4 mph29.6 kmh 29.41 in995.9 mb - 0.00 in0.0 mm 0.00 in0.0 mm
04:30 AM 37.6°F3.1°C 34.9°F1.6°C 90% 11.5 mph NW18.5 kmh NW 13.8 mph22.2 kmh 29.41 in995.9 mb - 0.00 in0.0 mm 0.00 in0.0 mm
04:40 AM 37.5°F3.1°C 34.8°F1.6°C 90% 8.1 mph NW13.0 kmh NW 13.8 mph22.2 kmh 29.42 in996.3 mb - 0.00 in0.0 mm 0.00 in0.0 mm
04:50 AM 37.2°F2.9°C 34.8°F1.6°C 91% 8.1 mph NW13.0 kmh NW 15.0 mph24.1 kmh 29.43 in996.6 mb - 0.00 in0.0 mm 0.00 in0.0 mm
05:00 AM 37.3°F2.9°C 34.9°F1.6°C 91% 10.4 mph NW16.7 kmh NW 12.7 mph20.4 kmh 29.43 in996.6 mb - 0.00 in0.0 mm 0.00 in0.0 mm
05:10 AM 37.5°F3.1°C 35.1°F1.7°C 91% 8.1 mph NW13.0 kmh NW 11.5 mph18.5 kmh 29.44 in997.0 mb - 0.00 in0.0 mm 0.00 in0.0 mm
05:20 AM 37.4°F3.0°C 35.0°F1.7°C 91% 9.2 mph NW14.8 kmh NW 15.0 mph24.1 kmh 29.44 in997.0 mb - 0.00 in0.0 mm 0.00 in0.0 mm
05:30 AM 37.5°F3.1°C 35.1°F1.7°C 91% 10.4 mph NW16.7 kmh NW 19.6 mph31.5 kmh 29.45 in997.3 mb - 0.00 in0.0 mm 0.00 in0.0 mm
05:40 AM 37.6°F3.1°C 34.9°F1.6°C 90% 10.4 mph NW16.7 kmh NW 19.6 mph31.5 kmh 29.45 in997.3 mb - 0.00 in0.0 mm 0.00 in0.0 mm
05:50 AM 37.7°F3.2°C 35.0°F1.7°C 90% 9.2 mph NW14.8 kmh NW 19.6 mph31.5 kmh 29.46 in997.6 mb - 0.00 in0.0 mm 0.00 in0.0 mm
06:00 AM 37.6°F3.1°C 34.9°F1.6°C 90% 9.2 mph NW14.8 kmh NW 15.0 mph24.1 kmh 29.46 in997.6 mb - 0.00 in0.0 mm 0.00 in0.0 mm
06:10 AM 37.5°F3.1°C 34.8°F1.6°C 90% 9.2 mph NW14.8 kmh NW 15.0 mph24.1 kmh 29.47 in998.0 mb - 0.00 in0.0 mm 0.00 in0.0 mm
06:20 AM 37.4°F3.0°C 34.7°F1.5°C 90% 8.1 mph NW13.0 kmh NW 11.5 mph18.5 kmh 29.48 in998.3 mb - 0.00 in0.0 mm 0.00 in0.0 mm
06:30 AM 37.3°F2.9°C 34.4°F1.3°C 89% 8.1 mph NW13.0 kmh NW 11.5 mph18.5 kmh 29.48 in998.3 mb - 0.00 in0.0 mm 0.00 in0.0 mm
06:40 AM 37.3°F2.9°C 34.4°F1.3°C 89% 8.1 mph NW13.0 kmh NW 9.2 mph14.8 kmh 29.49 in998.6 mb - 0.00 in0.0 mm 0.00 in0.0 mm
06:50 AM 37.1°F2.8°C 34.2°F1.2°C 89% 10.4 mph NW16.7 kmh NW 19.6 mph31.5 kmh 29.49 in998.6 mb - 0.00 in0.0 mm 0.00 in0.0 mm
07:00 AM 37.0°F2.8°C 34.1°F1.2°C 89% 9.2 mph NW14.8 kmh NW 15.0 mph24.1 kmh 29.50 in999.0 mb - 0.00 in0.0 mm 0.00 in0.0 mm
07:10 AM 36.9°F2.7°C 34.2°F1.2°C 90% 10.4 mph NW16.7 kmh NW 16.1 mph25.9 kmh 29.50 in999.0 mb - 0.00 in0.0 mm 0.00 in0.0 mm
07:20 AM 37.1°F2.8°C 34.2°F1.2°C 89% 11.5 mph NW18.5 kmh NW 16.1 mph25.9 kmh 29.51 in999.3 mb - 0.00 in0.0 mm 0.00 in0.0 mm
07:30 AM 36.9°F2.7°C 34.2°F1.2°C 90% 10.4 mph NW16.7 kmh NW 16.1 mph25.9 kmh 29.51 in999.3 mb - 0.00 in0.0 mm 0.00 in0.0 mm
07:40 AM 37.0°F2.8°C 34.3°F1.3°C 90% 10.4 mph NW16.7 kmh NW 16.1 mph25.9 kmh 29.52 in999.7 mb - 0.00 in0.0 mm 0.00 in0.0 mm
07:50 AM 36.8°F2.7°C 34.1°F1.2°C 90% 10.4 mph NW16.7 kmh NW 13.8 mph22.2 kmh 29.53 in1000.0 mb - 0.00 in0.0 mm 0.00 in0.0 mm
08:00 AM 36.7°F2.6°C 34.0°F1.1°C 90% 8.1 mph NW13.0 kmh NW 16.1 mph25.9 kmh 29.53 in1000.0 mb - 0.00 in0.0 mm 0.00 in0.0 mm
08:10 AM 36.6°F2.6°C 33.9°F1.1°C 90% 11.5 mph NW18.5 kmh NW 18.4 mph29.6 kmh 29.54 in1000.3 mb - 0.00 in0.0 mm 0.00 in0.0 mm
08:20 AM 36.4°F2.4°C 33.7°F0.9°C 90% 9.2 mph NW14.8 kmh NW 13.8 mph22.2 kmh 29.54 in1000.3 mb - 0.00 in0.0 mm 0.00 in0.0 mm
08:30 AM 36.3°F2.4°C 34.0°F1.1°C 91% 9.2 mph NW14.8 kmh NW 16.1 mph25.9 kmh 29.55 in1000.7 mb - 0.00 in0.0 mm 0.00 in0.0 mm
08:40 AM 36.2°F2.3°C 33.8°F1.0°C 91% 9.2 mph NW14.8 kmh NW 16.1 mph25.9 kmh 29.55 in1000.7 mb - 0.00 in0.0 mm 0.00 in0.0 mm
08:50 AM 36.2°F2.3°C 33.8°F1.0°C 91% 10.4 mph NW16.7 kmh NW 13.8 mph22.2 kmh 29.55 in1000.7 mb - 0.00 in0.0 mm 0.00 in0.0 mm
09:00 AM 36.2°F2.3°C 34.1°F1.2°C 92% 9.2 mph NW14.8 kmh NW 13.8 mph22.2 kmh 29.55 in1000.7 mb - 0.00 in0.0 mm 0.00 in0.0 mm
09:10 AM 36.2°F2.3°C 34.1°F1.2°C 92% 8.1 mph NW13.0 kmh NW 11.5 mph18.5 kmh 29.55 in1000.7 mb - 0.00 in0.0 mm 0.00 in0.0 mm
09:20 AM 36.2°F2.3°C 34.1°F1.2°C 92% 6.9 mph NW11.1 kmh NW 13.8 mph22.2 kmh 29.56 in1001.0 mb - 0.00 in0.0 mm 0.00 in0.0 mm
09:30 AM 36.2°F2.3°C 33.8°F1.0°C 91% 5.8 mph NW9.3 kmh NW 8.1 mph13.0 kmh 29.57 in1001.4 mb - 0.00 in0.0 mm 0.00 in0.0 mm
09:40 AM 36.3°F2.4°C 33.9°F1.1°C 91% 8.1 mph NW13.0 kmh NW 11.5 mph18.5 kmh 29.57 in1001.4 mb - 0.00 in0.0 mm 0.00 in0.0 mm
09:50 AM 36.4°F2.4°C 34.0°F1.1°C 91% 9.2 mph NW14.8 kmh NW 15.0 mph24.1 kmh 29.58 in1001.7 mb - 0.00 in0.0 mm 0.00 in0.0 mm
10:00 AM 36.6°F2.6°C 34.2°F1.2°C 91% 6.9 mph NW11.1 kmh NW 11.5 mph18.5 kmh 29.58 in1001.7 mb - 0.00 in0.0 mm 0.00 in0.0 mm
10:10 AM 36.8°F2.7°C 34.4°F1.3°C 91% 9.2 mph NW14.8 kmh NW 16.1 mph25.9 kmh 29.59 in1002.0 mb - 0.00 in0.0 mm 0.00 in0.0 mm
10:20 AM 37.1°F2.8°C 34.4°F1.3°C 90% 11.5 mph NW18.5 kmh NW 18.4 mph29.6 kmh 29.59 in1002.0 mb - 0.00 in0.0 mm 0.00 in0.0 mm
10:30 AM 37.3°F2.9°C 34.7°F1.5°C 90% 12.7 mph NW20.4 kmh NW 20.7 mph33.3 kmh 29.59 in1002.0 mb - 0.00 in0.0 mm 0.00 in0.0 mm
10:40 AM 37.6°F3.1°C 34.9°F1.6°C 90% 9.2 mph NW14.8 kmh NW 16.1 mph25.9 kmh 29.59 in1002.0 mb - 0.00 in0.0 mm 0.00 in0.0 mm
10:50 AM 37.9°F3.3°C 34.9°F1.6°C 89% 11.5 mph NW18.5 kmh NW 21.9 mph35.2 kmh 29.59 in1002.0 mb - 0.00 in0.0 mm 0.00 in0.0 mm
11:00 AM 38.1°F3.4°C 35.1°F1.7°C 89% 10.4 mph NW16.7 kmh NW 19.6 mph31.5 kmh 29.59 in1002.0 mb - 0.00 in0.0 mm 0.00 in0.0 mm
11:10 AM 38.3°F3.5°C 35.3°F1.8°C 89% 12.7 mph NW20.4 kmh NW 19.6 mph31.5 kmh 29.59 in1002.0 mb - 0.00 in0.0 mm 0.00 in0.0 mm
11:20 AM 38.6°F3.7°C 35.3°F1.8°C 88% 8.1 mph NW13.0 kmh NW 13.8 mph22.2 kmh 29.59 in1002.0 mb - 0.00 in0.0 mm 0.00 in0.0 mm
11:30 AM 38.8°F3.8°C 35.5°F1.9°C 88% 10.4 mph NW16.7 kmh NW 16.1 mph25.9 kmh 29.59 in1002.0 mb - 0.00 in0.0 mm 0.00 in0.0 mm
11:40 AM 39.0°F3.9°C 35.5°F1.9°C 87% 9.2 mph NW14.8 kmh NW 13.8 mph22.2 kmh 29.59 in1002.0 mb - 0.00 in0.0 mm 0.00 in0.0 mm
11:50 AM 39.2°F4.0°C 35.7°F2.1°C 87% 11.5 mph NW18.5 kmh NW 19.6 mph31.5 kmh 29.59 in1002.0 mb - 0.00 in0.0 mm 0.00 in0.0 mm
12:00 PM 39.3°F4.1°C 35.8°F2.1°C 87% 11.5 mph NW18.5 kmh NW 19.6 mph31.5 kmh 29.60 in1002.4 mb - 0.00 in0.0 mm 0.00 in0.0 mm
12:10 PM 39.5°F4.2°C 36.0°F2.2°C 87% 11.5 mph NW18.5 kmh NW 16.1 mph25.9 kmh 29.60 in1002.4 mb - 0.00 in0.0 mm 0.00 in0.0 mm
12:20 PM 39.6°F4.2°C 36.0°F2.2°C 87% 9.2 mph NW14.8 kmh NW 20.7 mph33.3 kmh 29.60 in1002.4 mb - 0.00 in0.0 mm 0.00 in0.0 mm
12:30 PM 39.7°F4.3°C 35.9°F2.2°C 86% 10.4 mph NW16.7 kmh NW 15.0 mph24.1 kmh 29.60 in1002.4 mb - 0.00 in0.0 mm 0.00 in0.0 mm
12:40 PM 39.9°F4.4°C 36.1°F2.3°C 86% 10.4 mph NW16.7 kmh NW 19.6 mph31.5 kmh 29.60 in1002.4 mb - 0.00 in0.0 mm 0.00 in0.0 mm
12:50 PM 40.1°F4.5°C 36.5°F2.5°C 87% 12.7 mph NW20.4 kmh NW 21.9 mph35.2 kmh 29.60 in1002.4 mb - 0.00 in0.0 mm 0.00 in0.0 mm
01:00 PM 40.4°F4.7°C 36.5°F2.5°C 86% 9.2 mph NW14.8 kmh NW 19.6 mph31.5 kmh 29.60 in1002.4 mb - 0.00 in0.0 mm 0.00 in0.0 mm
01:10 PM 40.6°F4.8°C 36.7°F2.6°C 86% 12.7 mph NW20.4 kmh NW 19.6 mph31.5 kmh 29.60 in1002.4 mb - 0.00 in0.0 mm 0.00 in0.0 mm
01:20 PM 40.7°F4.8°C 36.8°F2.7°C 86% 12.7 mph NW20.4 kmh NW 21.9 mph35.2 kmh 29.60 in1002.4 mb - 0.00 in0.0 mm 0.00 in0.0 mm
01:30 PM 40.7°F4.8°C 37.1°F2.8°C 87% 11.5 mph NW18.5 kmh NW 18.4 mph29.6 kmh 29.60 in1002.4 mb - 0.00 in0.0 mm 0.00 in0.0 mm
01:40 PM 40.9°F4.9°C 36.7°F2.6°C 85% 13.8 mph NW22.2 kmh NW 19.6 mph31.5 kmh 29.60 in1002.4 mb - 0.00 in0.0 mm 0.00 in0.0 mm
01:50 PM 41.1°F5.1°C 36.9°F2.7°C 85% 10.4 mph NW16.7 kmh NW 13.8 mph22.2 kmh 29.61 in1002.7 mb - 0.00 in0.0 mm 0.00 in0.0 mm
02:00 PM 41.1°F5.1°C 37.2°F2.9°C 86% 11.5 mph NW18.5 kmh NW 16.1 mph25.9 kmh 29.61 in1002.7 mb - 0.00 in0.0 mm 0.00 in0.0 mm
02:10 PM 41.2°F5.1°C 37.3°F2.9°C 86% 9.2 mph NW14.8 kmh NW 13.8 mph22.2 kmh 29.61 in1002.7 mb - 0.00 in0.0 mm 0.00 in0.0 mm
02:20 PM 41.3°F5.2°C 37.1°F2.8°C 85% 9.2 mph NW14.8 kmh NW 13.8 mph22.2 kmh 29.61 in1002.7 mb - 0.00 in0.0 mm 0.00 in0.0 mm
02:30 PM 41.4°F5.2°C 37.5°F3.1°C 86% 9.2 mph NW14.8 kmh NW 18.4 mph29.6 kmh 29.61 in1002.7 mb - 0.00 in0.0 mm 0.00 in0.0 mm
02:40 PM 41.4°F5.2°C 37.2°F2.9°C 85% 8.1 mph NW13.0 kmh NW 11.5 mph18.5 kmh 29.61 in1002.7 mb - 0.00 in0.0 mm 0.00 in0.0 mm
02:50 PM 41.4°F5.2°C 36.9°F2.7°C 84% 11.5 mph NW18.5 kmh NW 16.1 mph25.9 kmh 29.62 in1003.0 mb - 0.00 in0.0 mm 0.00 in0.0 mm
03:00 PM 41.3°F5.2°C 36.8°F2.7°C 84% 8.1 mph NW13.0 kmh NW 12.7 mph20.4 kmh 29.62 in1003.0 mb - 0.00 in0.0 mm 0.00 in0.0 mm
03:10 PM 41.1°F5.1°C 37.0°F2.8°C 85% 8.1 mph WNW13.0 kmh WNW 11.5 mph18.5 kmh 29.62 in1003.0 mb - 0.00 in0.0 mm 0.00 in0.0 mm
03:20 PM 41.0°F5.0°C 37.1°F2.8°C 86% 6.9 mph NW11.1 kmh NW 9.2 mph14.8 kmh 29.63 in1003.4 mb - 0.00 in0.0 mm 0.00 in0.0 mm
03:30 PM 40.7°F4.8°C 36.8°F2.7°C 86% 6.9 mph WNW11.1 kmh WNW 12.7 mph20.4 kmh 29.63 in1003.4 mb - 0.00 in0.0 mm 0.00 in0.0 mm
03:40 PM 40.5°F4.7°C 36.6°F2.6°C 86% 8.1 mph NW13.0 kmh NW 11.5 mph18.5 kmh 29.63 in1003.4 mb - 0.00 in0.0 mm 0.00 in0.0 mm
03:50 PM 40.1°F4.5°C 36.5°F2.5°C 87% 6.9 mph NW11.1 kmh NW 11.5 mph18.5 kmh 29.64 in1003.7 mb - 0.00 in0.0 mm 0.00 in0.0 mm
04:00 PM 39.9°F4.4°C 36.3°F2.4°C 87% 4.6 mph NW7.4 kmh NW 6.9 mph11.1 kmh 29.64 in1003.7 mb - 0.00 in0.0 mm 0.00 in0.0 mm
04:10 PM 39.7°F4.3°C 36.4°F2.4°C 88% 5.8 mph NW9.3 kmh NW 11.5 mph18.5 kmh 29.64 in1003.7 mb - 0.00 in0.0 mm 0.00 in0.0 mm
04:20 PM 39.4°F4.1°C 36.2°F2.3°C 88% 4.6 mph NW7.4 kmh NW 9.2 mph14.8 kmh 29.64 in1003.7 mb - 0.00 in0.0 mm 0.00 in0.0 mm
04:30 PM 39.1°F3.9°C 36.2°F2.3°C 89% 5.8 mph WNW9.3 kmh WNW 11.5 mph18.5 kmh 29.64 in1003.7 mb - 0.00 in0.0 mm 0.00 in0.0 mm
04:40 PM 39.0°F3.9°C 36.0°F2.2°C 89% 6.9 mph WNW11.1 kmh WNW 12.7 mph20.4 kmh 29.64 in1003.7 mb - 0.00 in0.0 mm 0.00 in0.0 mm
04:50 PM 38.9°F3.8°C 35.9°F2.2°C 89% 8.1 mph NW13.0 kmh NW 11.5 mph18.5 kmh 29.64 in1003.7 mb - 0.00 in0.0 mm 0.00 in0.0 mm
05:00 PM 38.9°F3.8°C 35.9°F2.2°C 89% 5.8 mph NW9.3 kmh NW 9.2 mph14.8 kmh 29.64 in1003.7 mb - 0.00 in0.0 mm 0.00 in0.0 mm
05:10 PM 39.1°F3.9°C 36.1°F2.3°C 89% 11.5 mph WNW18.5 kmh WNW 19.6 mph31.5 kmh 29.65 in1004.1 mb - 0.00 in0.0 mm 0.00 in0.0 mm
05:20 PM 38.5°F3.6°C 35.3°F1.8°C 88% 11.5 mph NW18.5 kmh NW 19.6 mph31.5 kmh 29.65 in1004.1 mb - 0.00 in0.0 mm 0.00 in0.0 mm
05:30 PM 38.3°F3.5°C 35.1°F1.7°C 88% 8.1 mph NW13.0 kmh NW 16.1 mph25.9 kmh 29.65 in1004.1 mb - 0.00 in0.0 mm 0.00 in0.0 mm
05:40 PM 38.0°F3.3°C 35.0°F1.7°C 89% 9.2 mph NW14.8 kmh NW 15.0 mph24.1 kmh 29.65 in1004.1 mb - 0.00 in0.0 mm 0.00 in0.0 mm
05:50 PM 37.8°F3.2°C 35.1°F1.7°C 90% 8.1 mph NW13.0 kmh NW 13.8 mph22.2 kmh 29.66 in1004.4 mb - 0.00 in0.0 mm 0.00 in0.0 mm
06:00 PM 37.5°F3.1°C 35.1°F1.7°C 91% 5.8 mph WNW9.3 kmh WNW 12.7 mph20.4 kmh 29.66 in1004.4 mb - 0.00 in0.0 mm 0.00 in0.0 mm
06:10 PM 37.2°F2.9°C 34.8°F1.6°C 91% 5.8 mph NW9.3 kmh NW 6.9 mph11.1 kmh 29.66 in1004.4 mb - 0.00 in0.0 mm 0.00 in0.0 mm
06:20 PM 37.0°F2.8°C 34.9°F1.6°C 92% 3.5 mph NW5.6 kmh NW 11.5 mph18.5 kmh 29.66 in1004.4 mb - 0.00 in0.0 mm 0.00 in0.0 mm
06:30 PM 36.7°F2.6°C 34.6°F1.4°C 92% 6.9 mph WNW11.1 kmh WNW 9.2 mph14.8 kmh 29.67 in1004.7 mb - 0.00 in0.0 mm 0.00 in0.0 mm
06:40 PM 36.4°F2.4°C 34.3°F1.3°C 92% 4.6 mph WNW7.4 kmh WNW 8.1 mph13.0 kmh 29.67 in1004.7 mb - 0.00 in0.0 mm 0.00 in0.0 mm
06:50 PM 36.3°F2.4°C 34.2°F1.2°C 92% 3.5 mph WNW5.6 kmh WNW 6.9 mph11.1 kmh 29.67 in1004.7 mb - 0.00 in0.0 mm 0.00 in0.0 mm
07:00 PM 36.0°F2.2°C 33.9°F1.1°C 92% 2.3 mph WNW3.7 kmh WNW 6.9 mph11.1 kmh 29.67 in1004.7 mb - 0.00 in0.0 mm 0.00 in0.0 mm
07:10 PM 35.7°F2.1°C 33.9°F1.1°C 93% 2.3 mph WNW3.7 kmh WNW 5.8 mph9.3 kmh 29.67 in1004.7 mb - 0.00 in0.0 mm 0.00 in0.0 mm
07:20 PM 35.5°F1.9°C 33.7°F0.9°C 93% 3.5 mph W5.6 kmh W 6.9 mph11.1 kmh 29.67 in1004.7 mb - 0.00 in0.0 mm 0.00 in0.0 mm
07:30 PM 35.7°F2.1°C 33.9°F1.1°C 93% 3.5 mph WNW5.6 kmh WNW 8.1 mph13.0 kmh 29.68 in1005.1 mb - 0.00 in0.0 mm 0.00 in0.0 mm
07:40 PM 35.9°F2.2°C 33.8°F1.0°C 92% 1.2 mph NW1.9 kmh NW 4.6 mph7.4 kmh 29.68 in1005.1 mb - 0.00 in0.0 mm 0.00 in0.0 mm
07:50 PM 35.8°F2.1°C 33.7°F0.9°C 92% 1.2 mph WNW1.9 kmh WNW 2.3 mph3.7 kmh 29.68 in1005.1 mb - 0.00 in0.0 mm 0.00 in0.0 mm
08:00 PM 35.5°F1.9°C 33.7°F0.9°C 93% 1.2 mph W1.9 kmh W 3.5 mph5.6 kmh 29.67 in1004.7 mb - 0.00 in0.0 mm 0.00 in0.0 mm
08:10 PM 35.4°F1.9°C 33.6°F0.9°C 93% Calm Calm 5.8 mph9.3 kmh 29.68 in1005.1 mb - 0.00 in0.0 mm 0.00 in0.0 mm
08:20 PM 35.4°F1.9°C 33.6°F0.9°C 93% 1.2 mph NW1.9 kmh NW 5.8 mph9.3 kmh 29.68 in1005.1 mb - 0.00 in0.0 mm 0.00 in0.0 mm
08:30 PM 35.2°F1.8°C 33.4°F0.8°C 93% Calm Calm -- 29.68 in1005.1 mb - 0.00 in0.0 mm 0.00 in0.0 mm
08:40 PM 34.7°F1.5°C 32.9°F0.5°C 93% Calm Calm -- 29.68 in1005.1 mb - 0.00 in0.0 mm 0.00 in0.0 mm
08:50 PM 34.3°F1.3°C 32.5°F0.3°C 93% Calm Calm -- 29.68 in1005.1 mb - 0.00 in0.0 mm 0.00 in0.0 mm
09:00 PM 34.0°F1.1°C 32.4°F0.2°C 94% Calm Calm -- 29.68 in1005.1 mb - 0.00 in0.0 mm 0.00 in0.0 mm
09:10 PM 33.5°F0.8°C 31.9°F-0.1°C 94% Calm Calm -- 29.68 in1005.1 mb - 0.00 in0.0 mm 0.00 in0.0 mm
09:20 PM 32.9°F0.5°C 31.4°F-0.3°C 94% Calm Calm -- 29.68 in1005.1 mb - 0.00 in0.0 mm 0.00 in0.0 mm
09:30 PM 32.7°F0.4°C 31.4°F-0.3°C 95% Calm Calm -- 29.68 in1005.1 mb - 0.00 in0.0 mm 0.00 in0.0 mm
09:40 PM 32.7°F0.4°C 31.4°F-0.3°C 95% Calm Calm -- 29.68 in1005.1 mb - 0.00 in0.0 mm 0.00 in0.0 mm
09:50 PM 33.2°F0.7°C 31.9°F-0.1°C 95% 1.2 mph WNW1.9 kmh WNW 2.3 mph3.7 kmh 29.68 in1005.1 mb - 0.00 in0.0 mm 0.00 in0.0 mm
10:00 PM 33.7°F0.9°C 32.4°F0.2°C 95% 1.2 mph W1.9 kmh W 2.3 mph3.7 kmh 29.68 in1005.1 mb - 0.00 in0.0 mm 0.00 in0.0 mm
10:10 PM 34.0°F1.1°C 32.7°F0.4°C 95% 2.3 mph NW3.7 kmh NW 5.8 mph9.3 kmh 29.68 in1005.1 mb - 0.00 in0.0 mm 0.00 in0.0 mm
10:20 PM 34.3°F1.3°C 32.8°F0.4°C 94% 3.5 mph NW5.6 kmh NW 5.8 mph9.3 kmh 29.68 in1005.1 mb - 0.00 in0.0 mm 0.00 in0.0 mm
10:30 PM 34.5°F1.4°C 33.0°F0.6°C 94% 3.5 mph NW5.6 kmh NW 5.8 mph9.3 kmh 29.68 in1005.1 mb - 0.00 in0.0 mm 0.00 in0.0 mm
10:40 PM 34.4°F1.3°C 32.9°F0.5°C 94% 2.3 mph NW3.7 kmh NW 5.8 mph9.3 kmh 29.68 in1005.1 mb - 0.00 in0.0 mm 0.00 in0.0 mm
10:50 PM 34.4°F1.3°C 32.9°F0.5°C 94% Calm Calm 2.3 mph3.7 kmh 29.68 in1005.1 mb - 0.00 in0.0 mm 0.00 in0.0 mm
11:00 PM 33.9°F1.1°C 32.1°F0.1°C 93% 1.2 mph WNW1.9 kmh WNW 5.8 mph9.3 kmh 29.68 in1005.1 mb - 0.00 in0.0 mm 0.00 in0.0 mm
11:10 PM 33.9°F1.1°C 32.4°F0.2°C 94% 1.2 mph WNW1.9 kmh WNW 5.8 mph9.3 kmh 29.68 in1005.1 mb - 0.00 in0.0 mm 0.00 in0.0 mm
11:20 PM 34.3°F1.3°C 32.8°F0.4°C 94% 2.3 mph NW3.7 kmh NW 4.6 mph7.4 kmh 29.68 in1005.1 mb - 0.00 in0.0 mm 0.00 in0.0 mm
11:30 PM 34.3°F1.3°C 32.5°F0.3°C 93% Calm Calm -- 29.68 in1005.1 mb - 0.00 in0.0 mm 0.00 in0.0 mm
11:40 PM 34.3°F1.3°C 32.5°F0.3°C 93% 1.2 mph W1.9 kmh W 4.6 mph7.4 kmh 29.68 in1005.1 mb - 0.00 in0.0 mm 0.00 in0.0 mm
11:50 PM 34.1°F1.2°C 32.3°F0.2°C 93% 2.3 mph W3.7 kmh W 2.3 mph3.7 kmh 29.68 in1005.1 mb - 0.00 in0.0 mm 0.00 in0.0 mm